sensor_id;sensor_type;location;lat;lon;timestamp;P1;durP1;ratioP1;P2;durP2;ratioP2
2486;SDS011;1254;49.144;8.212;2024-03-02T00:00:56;13.32;;;11.02;;
2486;SDS011;1254;49.144;8.212;2024-03-02T00:03:24;14.85;;;10.50;;
2486;SDS011;1254;49.144;8.212;2024-03-02T00:05:53;14.20;;;10.30;;
2486;SDS011;1254;49.144;8.212;2024-03-02T00:08:22;12.60;;;9.80;;
2486;SDS011;1254;49.144;8.212;2024-03-02T00:10:56;14.45;;;10.65;;
2486;SDS011;1254;49.144;8.212;2024-03-02T00:13:25;26.95;;;15.50;;
2486;SDS011;1254;49.144;8.212;2024-03-02T00:15:56;15.85;;;11.05;;
2486;SDS011;1254;49.144;8.212;2024-03-02T00:18:25;12.55;;;10.35;;
2486;SDS011;1254;49.144;8.212;2024-03-02T00:20:55;12.85;;;9.90;;
2486;SDS011;1254;49.144;8.212;2024-03-02T00:23:24;12.43;;;8.73;;
2486;SDS011;1254;49.144;8.212;2024-03-02T00:25:55;11.10;;;9.15;;
2486;SDS011;1254;49.144;8.212;2024-03-02T00:28:24;11.00;;;9.82;;
2486;SDS011;1254;49.144;8.212;2024-03-02T00:31:01;11.02;;;9.43;;
2486;SDS011;1254;49.144;8.212;2024-03-02T00:33:30;10.27;;;8.75;;
2486;SDS011;1254;49.144;8.212;2024-03-02T00:35:59;14.90;;;10.48;;
2486;SDS011;1254;49.144;8.212;2024-03-02T00:38:28;13.25;;;9.73;;
2486;SDS011;1254;49.144;8.212;2024-03-02T00:40:58;13.90;;;10.15;;
2486;SDS011;1254;49.144;8.212;2024-03-02T00:43:41;13.93;;;10.40;;
2486;SDS011;1254;49.144;8.212;2024-03-02T00:46:10;13.25;;;11.13;;
2486;SDS011;1254;49.144;8.212;2024-03-02T00:48:47;12.77;;;10.35;;
2486;SDS011;1254;49.144;8.212;2024-03-02T00:51:17;11.20;;;9.85;;
2486;SDS011;1254;49.144;8.212;2024-03-02T00:53:46;12.60;;;11.13;;
2486;SDS011;1254;49.144;8.212;2024-03-02T00:56:14;13.35;;;11.15;;
2486;SDS011;1254;49.144;8.212;2024-03-02T00:58:43;13.10;;;11.02;;
2486;SDS011;1254;49.144;8.212;2024-03-02T01:01:12;16.73;;;11.38;;
2486;SDS011;1254;49.144;8.212;2024-03-02T01:03:42;13.75;;;11.15;;
2486;SDS011;1254;49.144;8.212;2024-03-02T01:06:11;13.90;;;11.55;;
2486;SDS011;1254;49.144;8.212;2024-03-02T01:08:39;11.48;;;10.20;;
2486;SDS011;1254;49.144;8.212;2024-03-02T01:11:08;11.90;;;10.32;;
2486;SDS011;1254;49.144;8.212;2024-03-02T01:13:36;11.70;;;10.43;;
2486;SDS011;1254;49.144;8.212;2024-03-02T01:16:08;12.57;;;9.88;;
2486;SDS011;1254;49.144;8.212;2024-03-02T01:18:44;13.52;;;10.15;;
2486;SDS011;1254;49.144;8.212;2024-03-02T01:21:14;12.52;;;10.55;;
2486;SDS011;1254;49.144;8.212;2024-03-02T01:23:43;15.85;;;11.05;;
2486;SDS011;1254;49.144;8.212;2024-03-02T01:26:13;13.38;;;11.80;;
2486;SDS011;1254;49.144;8.212;2024-03-02T01:28:42;12.27;;;10.98;;
2486;SDS011;1254;49.144;8.212;2024-03-02T01:31:12;16.48;;;12.65;;
2486;SDS011;1254;49.144;8.212;2024-03-02T01:33:41;14.55;;;11.60;;
2486;SDS011;1254;49.144;8.212;2024-03-02T01:36:12;14.18;;;10.98;;
2486;SDS011;1254;49.144;8.212;2024-03-02T01:38:41;15.85;;;12.20;;
2486;SDS011;1254;49.144;8.212;2024-03-02T01:41:09;12.80;;;11.45;;
2486;SDS011;1254;49.144;8.212;2024-03-02T01:43:39;12.90;;;10.50;;
2486;SDS011;1254;49.144;8.212;2024-03-02T01:46:08;10.18;;;9.07;;
2486;SDS011;1254;49.144;8.212;2024-03-02T01:48:37;9.00;;;8.10;;
2486;SDS011;1254;49.144;8.212;2024-03-02T01:51:06;12.38;;;9.90;;
2486;SDS011;1254;49.144;8.212;2024-03-02T01:53:40;11.10;;;8.80;;
2486;SDS011;1254;49.144;8.212;2024-03-02T01:56:09;10.63;;;8.80;;
2486;SDS011;1254;49.144;8.212;2024-03-02T01:58:38;11.25;;;8.80;;
2486;SDS011;1254;49.144;8.212;2024-03-02T02:01:06;12.77;;;9.73;;
2486;SDS011;1254;49.144;8.212;2024-03-02T02:03:36;13.82;;;11.05;;
2486;SDS011;1254;49.144;8.212;2024-03-02T02:06:09;13.05;;;9.90;;
2486;SDS011;1254;49.144;8.212;2024-03-02T02:08:38;11.00;;;9.50;;
2486;SDS011;1254;49.144;8.212;2024-03-02T02:11:07;9.98;;;8.55;;
2486;SDS011;1254;49.144;8.212;2024-03-02T02:13:36;11.40;;;9.10;;
2486;SDS011;1254;49.144;8.212;2024-03-02T02:16:05;10.88;;;8.65;;
2486;SDS011;1254;49.144;8.212;2024-03-02T02:18:34;13.05;;;7.63;;
2486;SDS011;1254;49.144;8.212;2024-03-02T02:21:08;8.02;;;7.18;;
2486;SDS011;1254;49.144;8.212;2024-03-02T02:23:38;11.25;;;8.73;;
2486;SDS011;1254;49.144;8.212;2024-03-02T02:26:06;11.60;;;8.50;;
2486;SDS011;1254;49.144;8.212;2024-03-02T02:28:34;9.48;;;8.48;;
2486;SDS011;1254;49.144;8.212;2024-03-02T02:31:03;10.80;;;8.35;;
2486;SDS011;1254;49.144;8.212;2024-03-02T02:33:31;9.40;;;8.48;;
2486;SDS011;1254;49.144;8.212;2024-03-02T02:36:00;11.18;;;9.70;;
2486;SDS011;1254;49.144;8.212;2024-03-02T02:38:28;10.18;;;8.45;;
2486;SDS011;1254;49.144;8.212;2024-03-02T02:40:58;9.85;;;8.85;;
2486;SDS011;1254;49.144;8.212;2024-03-02T02:43:26;11.57;;;9.68;;
2486;SDS011;1254;49.144;8.212;2024-03-02T02:45:54;10.88;;;9.77;;
2486;SDS011;1254;49.144;8.212;2024-03-02T02:48:23;11.63;;;9.85;;
2486;SDS011;1254;49.144;8.212;2024-03-02T02:50:51;13.80;;;10.18;;
2486;SDS011;1254;49.144;8.212;2024-03-02T02:53:19;14.30;;;9.85;;
2486;SDS011;1254;49.144;8.212;2024-03-02T02:55:48;12.90;;;9.45;;
2486;SDS011;1254;49.144;8.212;2024-03-02T02:58:18;14.75;;;10.90;;
2486;SDS011;1254;49.144;8.212;2024-03-02T03:00:46;12.52;;;10.13;;
2486;SDS011;1254;49.144;8.212;2024-03-02T03:03:14;11.82;;;9.68;;
2486;SDS011;1254;49.144;8.212;2024-03-02T03:05:43;12.63;;;10.52;;
2486;SDS011;1254;49.144;8.212;2024-03-02T03:08:11;15.05;;;11.30;;
2486;SDS011;1254;49.144;8.212;2024-03-02T03:10:40;14.60;;;11.38;;
2486;SDS011;1254;49.144;8.212;2024-03-02T03:13:08;12.63;;;10.80;;
2486;SDS011;1254;49.144;8.212;2024-03-02T03:15:38;15.55;;;11.65;;
2486;SDS011;1254;49.144;8.212;2024-03-02T03:18:06;14.85;;;12.40;;
2486;SDS011;1254;49.144;8.212;2024-03-02T03:20:36;12.73;;;11.10;;
2486;SDS011;1254;49.144;8.212;2024-03-02T03:23:04;15.23;;;11.55;;
2486;SDS011;1254;49.144;8.212;2024-03-02T03:25:33;13.40;;;10.85;;
2486;SDS011;1254;49.144;8.212;2024-03-02T03:28:01;14.68;;;11.77;;
2486;SDS011;1254;49.144;8.212;2024-03-02T03:30:30;13.95;;;11.65;;
2486;SDS011;1254;49.144;8.212;2024-03-02T03:32:59;18.83;;;12.13;;
2486;SDS011;1254;49.144;8.212;2024-03-02T03:35:28;15.95;;;12.88;;
2486;SDS011;1254;49.144;8.212;2024-03-02T03:37:57;15.65;;;11.40;;
2486;SDS011;1254;49.144;8.212;2024-03-02T03:40:25;11.90;;;10.65;;
2486;SDS011;1254;49.144;8.212;2024-03-02T03:42:53;17.95;;;10.52;;
2486;SDS011;1254;49.144;8.212;2024-03-02T03:45:22;15.48;;;11.88;;
2486;SDS011;1254;49.144;8.212;2024-03-02T03:47:52;14.18;;;11.48;;
2486;SDS011;1254;49.144;8.212;2024-03-02T03:50:21;13.00;;;11.60;;
2486;SDS011;1254;49.144;8.212;2024-03-02T03:52:50;14.35;;;11.57;;
2486;SDS011;1254;49.144;8.212;2024-03-02T03:55:18;13.05;;;11.32;;
2486;SDS011;1254;49.144;8.212;2024-03-02T03:57:47;13.73;;;12.32;;
2486;SDS011;1254;49.144;8.212;2024-03-02T04:00:15;12.30;;;11.00;;
2486;SDS011;1254;49.144;8.212;2024-03-02T04:02:43;13.57;;;10.40;;
2486;SDS011;1254;49.144;8.212;2024-03-02T04:05:12;11.23;;;9.48;;
2486;SDS011;1254;49.144;8.212;2024-03-02T04:07:42;13.82;;;11.10;;
2486;SDS011;1254;49.144;8.212;2024-03-02T04:10:10;15.32;;;9.88;;
2486;SDS011;1254;49.144;8.212;2024-03-02T04:12:38;12.90;;;9.90;;
2486;SDS011;1254;49.144;8.212;2024-03-02T04:15:07;11.70;;;10.48;;
2486;SDS011;1254;49.144;8.212;2024-03-02T04:17:36;12.80;;;9.30;;
2486;SDS011;1254;49.144;8.212;2024-03-02T04:20:05;12.60;;;10.05;;
2486;SDS011;1254;49.144;8.212;2024-03-02T04:22:33;11.23;;;9.77;;
2486;SDS011;1254;49.144;8.212;2024-03-02T04:25:04;11.40;;;9.75;;
2486;SDS011;1254;49.144;8.212;2024-03-02T04:27:33;10.40;;;9.40;;
2486;SDS011;1254;49.144;8.212;2024-03-02T04:30:02;10.93;;;9.73;;
2486;SDS011;1254;49.144;8.212;2024-03-02T04:32:31;15.10;;;9.93;;
2486;SDS011;1254;49.144;8.212;2024-03-02T04:34:59;12.15;;;9.93;;
2486;SDS011;1254;49.144;8.212;2024-03-02T04:37:28;12.52;;;10.48;;
2486;SDS011;1254;49.144;8.212;2024-03-02T04:39:57;15.10;;;11.38;;
2486;SDS011;1254;49.144;8.212;2024-03-02T04:42:26;13.35;;;9.98;;
2486;SDS011;1254;49.144;8.212;2024-03-02T04:44:55;14.30;;;10.77;;
2486;SDS011;1254;49.144;8.212;2024-03-02T04:47:23;12.15;;;10.55;;
2486;SDS011;1254;49.144;8.212;2024-03-02T04:49:52;16.70;;;12.30;;
2486;SDS011;1254;49.144;8.212;2024-03-02T04:52:20;13.85;;;11.15;;
2486;SDS011;1254;49.144;8.212;2024-03-02T04:54:50;16.45;;;11.45;;
2486;SDS011;1254;49.144;8.212;2024-03-02T04:57:47;16.02;;;12.38;;
2486;SDS011;1254;49.144;8.212;2024-03-02T05:00:17;15.13;;;10.82;;
2486;SDS011;1254;49.144;8.212;2024-03-02T05:02:45;16.52;;;10.38;;
2486;SDS011;1254;49.144;8.212;2024-03-02T05:05:14;16.15;;;11.32;;
2486;SDS011;1254;49.144;8.212;2024-03-02T05:07:42;15.75;;;11.05;;
2486;SDS011;1254;49.144;8.212;2024-03-02T05:10:10;15.68;;;12.38;;
2486;SDS011;1254;49.144;8.212;2024-03-02T05:12:39;11.85;;;9.80;;
2486;SDS011;1254;49.144;8.212;2024-03-02T05:15:27;13.65;;;11.05;;
2486;SDS011;1254;49.144;8.212;2024-03-02T05:17:55;16.67;;;11.20;;
2486;SDS011;1254;49.144;8.212;2024-03-02T05:20:25;13.70;;;10.90;;
2486;SDS011;1254;49.144;8.212;2024-03-02T05:22:54;15.43;;;11.40;;
2486;SDS011;1254;49.144;8.212;2024-03-02T05:25:22;17.98;;;11.15;;
2486;SDS011;1254;49.144;8.212;2024-03-02T05:27:50;12.32;;;10.57;;
2486;SDS011;1254;49.144;8.212;2024-03-02T05:30:19;13.50;;;10.70;;
2486;SDS011;1254;49.144;8.212;2024-03-02T05:32:51;19.90;;;14.02;;
2486;SDS011;1254;49.144;8.212;2024-03-02T05:35:19;14.10;;;10.65;;
2486;SDS011;1254;49.144;8.212;2024-03-02T05:37:48;12.43;;;11.13;;
2486;SDS011;1254;49.144;8.212;2024-03-02T05:40:16;14.95;;;11.48;;
2486;SDS011;1254;49.144;8.212;2024-03-02T05:42:44;16.55;;;13.05;;
2486;SDS011;1254;49.144;8.212;2024-03-02T05:45:13;14.93;;;12.93;;
2486;SDS011;1254;49.144;8.212;2024-03-02T05:47:42;15.82;;;12.85;;
2486;SDS011;1254;49.144;8.212;2024-03-02T05:50:12;15.70;;;12.82;;
2486;SDS011;1254;49.144;8.212;2024-03-02T05:52:41;14.15;;;12.30;;
2486;SDS011;1254;49.144;8.212;2024-03-02T05:55:09;16.95;;;11.75;;
2486;SDS011;1254;49.144;8.212;2024-03-02T05:57:38;17.83;;;12.77;;
2486;SDS011;1254;49.144;8.212;2024-03-02T06:00:21;19.27;;;12.43;;
2486;SDS011;1254;49.144;8.212;2024-03-02T06:02:50;14.68;;;11.70;;
2486;SDS011;1254;49.144;8.212;2024-03-02T06:05:20;16.17;;;10.88;;
2486;SDS011;1254;49.144;8.212;2024-03-02T06:07:48;14.15;;;10.77;;
2486;SDS011;1254;49.144;8.212;2024-03-02T06:10:16;13.68;;;10.90;;
2486;SDS011;1254;49.144;8.212;2024-03-02T06:12:45;12.23;;;10.57;;
2486;SDS011;1254;49.144;8.212;2024-03-02T06:15:13;16.92;;;11.30;;
2486;SDS011;1254;49.144;8.212;2024-03-02T06:17:41;11.80;;;10.60;;
2486;SDS011;1254;49.144;8.212;2024-03-02T06:20:10;15.18;;;11.90;;
2486;SDS011;1254;49.144;8.212;2024-03-02T06:22:40;14.32;;;11.68;;
2486;SDS011;1254;49.144;8.212;2024-03-02T06:25:08;12.77;;;10.25;;
2486;SDS011;1254;49.144;8.212;2024-03-02T06:27:37;15.43;;;11.40;;
2486;SDS011;1254;49.144;8.212;2024-03-02T06:30:06;15.73;;;10.88;;
2486;SDS011;1254;49.144;8.212;2024-03-02T06:32:34;14.95;;;10.38;;
2486;SDS011;1254;49.144;8.212;2024-03-02T06:35:03;12.27;;;10.15;;
2486;SDS011;1254;49.144;8.212;2024-03-02T06:37:34;11.93;;;9.02;;
2486;SDS011;1254;49.144;8.212;2024-03-02T06:40:04;12.07;;;9.73;;
2486;SDS011;1254;49.144;8.212;2024-03-02T06:42:33;11.38;;;9.80;;
2486;SDS011;1254;49.144;8.212;2024-03-02T06:45:02;11.60;;;9.25;;
2486;SDS011;1254;49.144;8.212;2024-03-02T06:47:31;12.25;;;10.77;;
2486;SDS011;1254;49.144;8.212;2024-03-02T06:49:59;11.50;;;9.50;;
2486;SDS011;1254;49.144;8.212;2024-03-02T06:52:28;15.07;;;10.27;;
2486;SDS011;1254;49.144;8.212;2024-03-02T06:54:56;12.73;;;9.98;;
2486;SDS011;1254;49.144;8.212;2024-03-02T06:57:26;12.75;;;10.45;;
2486;SDS011;1254;49.144;8.212;2024-03-02T06:59:54;13.43;;;10.38;;
2486;SDS011;1254;49.144;8.212;2024-03-02T07:02:24;13.70;;;10.63;;
2486;SDS011;1254;49.144;8.212;2024-03-02T07:04:53;11.98;;;10.43;;
2486;SDS011;1254;49.144;8.212;2024-03-02T07:07:21;11.90;;;10.52;;
2486;SDS011;1254;49.144;8.212;2024-03-02T07:09:50;13.25;;;10.45;;
2486;SDS011;1254;49.144;8.212;2024-03-02T07:12:18;15.13;;;12.18;;
2486;SDS011;1254;49.144;8.212;2024-03-02T07:14:48;15.98;;;11.80;;
2486;SDS011;1254;49.144;8.212;2024-03-02T07:17:49;18.52;;;14.25;;
2486;SDS011;1254;49.144;8.212;2024-03-02T07:20:17;14.23;;;12.40;;
2486;SDS011;1254;49.144;8.212;2024-03-02T07:22:45;13.40;;;11.38;;
2486;SDS011;1254;49.144;8.212;2024-03-02T07:25:14;11.32;;;9.60;;
2486;SDS011;1254;49.144;8.212;2024-03-02T07:27:42;11.70;;;10.38;;
2486;SDS011;1254;49.144;8.212;2024-03-02T07:30:14;11.90;;;9.55;;
2486;SDS011;1254;49.144;8.212;2024-03-02T07:32:43;10.45;;;9.15;;
2486;SDS011;1254;49.144;8.212;2024-03-02T07:35:12;10.00;;;9.00;;
2486;SDS011;1254;49.144;8.212;2024-03-02T07:37:40;8.93;;;8.02;;
2486;SDS011;1254;49.144;8.212;2024-03-02T07:40:09;8.57;;;7.68;;
2486;SDS011;1254;49.144;8.212;2024-03-02T07:42:38;7.82;;;7.03;;
2486;SDS011;1254;49.144;8.212;2024-03-02T07:45:06;7.22;;;6.45;;
2486;SDS011;1254;49.144;8.212;2024-03-02T07:47:37;18.52;;;7.30;;
2486;SDS011;1254;49.144;8.212;2024-03-02T07:50:39;12.52;;;7.93;;
2486;SDS011;1254;49.144;8.212;2024-03-02T07:53:10;11.82;;;8.13;;
2486;SDS011;1254;49.144;8.212;2024-03-02T07:55:38;9.50;;;8.48;;
2486;SDS011;1254;49.144;8.212;2024-03-02T07:58:06;10.80;;;9.40;;
2486;SDS011;1254;49.144;8.212;2024-03-02T08:00:38;9.20;;;8.30;;
2486;SDS011;1254;49.144;8.212;2024-03-02T08:03:10;11.38;;;8.15;;
2486;SDS011;1254;49.144;8.212;2024-03-02T08:05:39;10.93;;;8.25;;
2486;SDS011;1254;49.144;8.212;2024-03-02T08:08:07;10.25;;;8.20;;
2486;SDS011;1254;49.144;8.212;2024-03-02T08:10:50;10.60;;;8.65;;
2486;SDS011;1254;49.144;8.212;2024-03-02T08:13:19;9.73;;;8.70;;
2486;SDS011;1254;49.144;8.212;2024-03-02T08:15:48;10.98;;;9.88;;
2486;SDS011;1254;49.144;8.212;2024-03-02T08:18:18;10.98;;;9.43;;
2486;SDS011;1254;49.144;8.212;2024-03-02T08:20:46;9.63;;;8.60;;
2486;SDS011;1254;49.144;8.212;2024-03-02T08:26:07;8.65;;;7.38;;
2486;SDS011;1254;49.144;8.212;2024-03-02T08:28:35;10.52;;;8.52;;
2486;SDS011;1254;49.144;8.212;2024-03-02T08:31:06;9.38;;;8.30;;
2486;SDS011;1254;49.144;8.212;2024-03-02T08:33:36;9.85;;;7.65;;
2486;SDS011;1254;49.144;8.212;2024-03-02T08:36:05;7.70;;;7.10;;
2486;SDS011;1254;49.144;8.212;2024-03-02T08:38:33;8.20;;;7.35;;
2486;SDS011;1254;49.144;8.212;2024-03-02T08:41:04;10.45;;;7.22;;
2486;SDS011;1254;49.144;8.212;2024-03-02T08:43:36;8.55;;;7.75;;
2486;SDS011;1254;49.144;8.212;2024-03-02T08:46:05;8.45;;;7.75;;
2486;SDS011;1254;49.144;8.212;2024-03-02T08:48:33;10.27;;;6.25;;
2486;SDS011;1254;49.144;8.212;2024-03-02T08:51:03;7.60;;;6.90;;
2486;SDS011;1254;49.144;8.212;2024-03-02T08:53:37;6.72;;;6.00;;
2486;SDS011;1254;49.144;8.212;2024-03-02T08:56:06;8.60;;;6.47;;
2486;SDS011;1254;49.144;8.212;2024-03-02T08:58:35;8.38;;;6.70;;
2486;SDS011;1254;49.144;8.212;2024-03-02T09:01:03;7.63;;;7.00;;
2486;SDS011;1254;49.144;8.212;2024-03-02T09:03:33;9.77;;;8.52;;
2486;SDS011;1254;49.144;8.212;2024-03-02T09:06:16;8.70;;;7.80;;
2486;SDS011;1254;49.144;8.212;2024-03-02T09:08:50;7.43;;;6.72;;
2486;SDS011;1254;49.144;8.212;2024-03-02T09:11:22;8.48;;;7.43;;
2486;SDS011;1254;49.144;8.212;2024-03-02T09:13:52;8.13;;;7.30;;
2486;SDS011;1254;49.144;8.212;2024-03-02T09:16:24;9.15;;;8.23;;
2486;SDS011;1254;49.144;8.212;2024-03-02T09:18:59;10.05;;;8.50;;
2486;SDS011;1254;49.144;8.212;2024-03-02T09:21:29;9.48;;;8.02;;
2486;SDS011;1254;49.144;8.212;2024-03-02T09:23:59;8.35;;;7.65;;
2486;SDS011;1254;49.144;8.212;2024-03-02T09:26:29;8.75;;;7.85;;
2486;SDS011;1254;49.144;8.212;2024-03-02T09:28:58;8.25;;;7.45;;
2486;SDS011;1254;49.144;8.212;2024-03-02T09:31:28;10.55;;;8.85;;
2486;SDS011;1254;49.144;8.212;2024-03-02T09:33:57;12.40;;;11.13;;
2486;SDS011;1254;49.144;8.212;2024-03-02T09:36:26;8.65;;;7.85;;
2486;SDS011;1254;49.144;8.212;2024-03-02T09:38:57;8.27;;;7.47;;
2486;SDS011;1254;49.144;8.212;2024-03-02T09:41:28;8.85;;;7.43;;
2486;SDS011;1254;49.144;8.212;2024-03-02T09:43:57;9.20;;;7.47;;
2486;SDS011;1254;49.144;8.212;2024-03-02T09:46:27;9.00;;;8.10;;
2486;SDS011;1254;49.144;8.212;2024-03-02T09:48:55;8.07;;;7.38;;
2486;SDS011;1254;49.144;8.212;2024-03-02T09:51:24;9.03;;;8.23;;
2486;SDS011;1254;49.144;8.212;2024-03-02T09:53:52;9.50;;;8.68;;
2486;SDS011;1254;49.144;8.212;2024-03-02T09:56:23;9.20;;;8.07;;
2486;SDS011;1254;49.144;8.212;2024-03-02T09:58:51;9.33;;;8.43;;
2486;SDS011;1254;49.144;8.212;2024-03-02T10:01:20;10.25;;;9.18;;
2486;SDS011;1254;49.144;8.212;2024-03-02T10:03:49;10.77;;;9.68;;
2486;SDS011;1254;49.144;8.212;2024-03-02T10:06:18;8.13;;;7.53;;
2486;SDS011;1254;49.144;8.212;2024-03-02T10:08:48;8.73;;;8.03;;
2486;SDS011;1254;49.144;8.212;2024-03-02T10:11:28;9.17;;;8.40;;
2486;SDS011;1254;49.144;8.212;2024-03-02T10:14:04;9.30;;;8.47;;
2486;SDS011;1254;49.144;8.212;2024-03-02T10:16:37;8.47;;;7.87;;
2486;SDS011;1254;49.144;8.212;2024-03-02T10:19:16;9.00;;;8.40;;
2486;SDS011;1254;49.144;8.212;2024-03-02T10:21:45;8.00;;;7.53;;
2486;SDS011;1254;49.144;8.212;2024-03-02T10:24:13;9.77;;;9.07;;
2486;SDS011;1254;49.144;8.212;2024-03-02T10:26:43;10.40;;;9.60;;
2486;SDS011;1254;49.144;8.212;2024-03-02T10:29:12;9.97;;;9.27;;
2486;SDS011;1254;49.144;8.212;2024-03-02T10:31:41;9.40;;;8.70;;
2486;SDS011;1254;49.144;8.212;2024-03-02T10:34:12;9.53;;;8.93;;
2486;SDS011;1254;49.144;8.212;2024-03-02T10:36:42;10.87;;;10.27;;
2486;SDS011;1254;49.144;8.212;2024-03-02T10:39:11;10.53;;;9.90;;
2486;SDS011;1254;49.144;8.212;2024-03-02T10:41:40;10.77;;;10.17;;
2486;SDS011;1254;49.144;8.212;2024-03-02T10:44:10;9.20;;;8.70;;
2486;SDS011;1254;49.144;8.212;2024-03-02T10:46:40;9.80;;;9.23;;
2486;SDS011;1254;49.144;8.212;2024-03-02T10:49:08;9.73;;;9.23;;
2486;SDS011;1254;49.144;8.212;2024-03-02T10:51:37;10.63;;;9.70;;
2486;SDS011;1254;49.144;8.212;2024-03-02T10:54:06;11.10;;;10.40;;
2486;SDS011;1254;49.144;8.212;2024-03-02T10:56:34;11.13;;;10.27;;
2486;SDS011;1254;49.144;8.212;2024-03-02T10:59:07;10.93;;;10.10;;
2486;SDS011;1254;49.144;8.212;2024-03-02T11:01:40;11.83;;;10.83;;
2486;SDS011;1254;49.144;8.212;2024-03-02T11:04:12;9.57;;;9.07;;
2486;SDS011;1254;49.144;8.212;2024-03-02T11:06:41;10.33;;;9.73;;
2486;SDS011;1254;49.144;8.212;2024-03-02T11:09:14;10.10;;;9.43;;
2486;SDS011;1254;49.144;8.212;2024-03-02T11:11:43;12.03;;;11.13;;
2486;SDS011;1254;49.144;8.212;2024-03-02T11:14:13;11.80;;;11.10;;
2486;SDS011;1254;49.144;8.212;2024-03-02T11:16:43;12.77;;;12.07;;
2486;SDS011;1254;49.144;8.212;2024-03-02T11:19:13;14.40;;;13.53;;
2486;SDS011;1254;49.144;8.212;2024-03-02T11:21:42;13.37;;;12.57;;
2486;SDS011;1254;49.144;8.212;2024-03-02T11:27:03;14.60;;;13.47;;
2486;SDS011;1254;49.144;8.212;2024-03-02T11:29:54;13.90;;;13.20;;
2486;SDS011;1254;49.144;8.212;2024-03-02T11:32:23;15.40;;;14.60;;
2486;SDS011;1254;49.144;8.212;2024-03-02T11:34:52;13.70;;;13.10;;
2486;SDS011;1254;49.144;8.212;2024-03-02T11:37:20;15.20;;;14.40;;
2486;SDS011;1254;49.144;8.212;2024-03-02T11:39:50;15.23;;;14.47;;
2486;SDS011;1254;49.144;8.212;2024-03-02T11:42:18;16.13;;;15.10;;
2486;SDS011;1254;49.144;8.212;2024-03-02T11:44:47;15.17;;;14.37;;
2486;SDS011;1254;49.144;8.212;2024-03-02T11:47:18;15.10;;;14.40;;
2486;SDS011;1254;49.144;8.212;2024-03-02T11:49:48;15.10;;;14.40;;
2486;SDS011;1254;49.144;8.212;2024-03-02T11:52:17;19.30;;;18.13;;
2486;SDS011;1254;49.144;8.212;2024-03-02T11:54:47;18.73;;;17.53;;
2486;SDS011;1254;49.144;8.212;2024-03-02T11:57:18;16.47;;;15.77;;
2486;SDS011;1254;49.144;8.212;2024-03-02T11:59:47;15.07;;;14.17;;
2486;SDS011;1254;49.144;8.212;2024-03-02T12:02:16;14.20;;;13.60;;
2486;SDS011;1254;49.144;8.212;2024-03-02T12:04:47;14.20;;;13.60;;
2486;SDS011;1254;49.144;8.212;2024-03-02T12:07:19;13.77;;;13.27;;
2486;SDS011;1254;49.144;8.212;2024-03-02T12:09:49;14.13;;;13.47;;
2486;SDS011;1254;49.144;8.212;2024-03-02T12:12:18;14.90;;;14.20;;
2486;SDS011;1254;49.144;8.212;2024-03-02T12:14:52;14.30;;;13.80;;
2486;SDS011;1254;49.144;8.212;2024-03-02T12:17:22;14.77;;;14.10;;
2486;SDS011;1254;49.144;8.212;2024-03-02T12:19:52;14.37;;;13.73;;
2486;SDS011;1254;49.144;8.212;2024-03-02T12:22:21;14.40;;;13.80;;
2486;SDS011;1254;49.144;8.212;2024-03-02T12:24:49;14.30;;;13.70;;
2486;SDS011;1254;49.144;8.212;2024-03-02T12:27:19;14.10;;;13.60;;
2486;SDS011;1254;49.144;8.212;2024-03-02T12:29:53;14.20;;;13.50;;
2486;SDS011;1254;49.144;8.212;2024-03-02T12:32:26;14.37;;;13.77;;
2486;SDS011;1254;49.144;8.212;2024-03-02T12:34:56;14.10;;;13.50;;
2486;SDS011;1254;49.144;8.212;2024-03-02T12:37:25;14.10;;;13.60;;
2486;SDS011;1254;49.144;8.212;2024-03-02T12:39:54;14.90;;;14.30;;
2486;SDS011;1254;49.144;8.212;2024-03-02T12:42:23;14.47;;;13.90;;
2486;SDS011;1254;49.144;8.212;2024-03-02T12:44:52;14.10;;;13.60;;
2486;SDS011;1254;49.144;8.212;2024-03-02T12:47:21;14.37;;;13.80;;
2486;SDS011;1254;49.144;8.212;2024-03-02T12:49:51;14.67;;;14.07;;
2486;SDS011;1254;49.144;8.212;2024-03-02T12:52:21;15.10;;;14.40;;
2486;SDS011;1254;49.144;8.212;2024-03-02T12:54:50;14.17;;;13.57;;
2486;SDS011;1254;49.144;8.212;2024-03-02T12:57:18;14.20;;;13.63;;
2486;SDS011;1254;49.144;8.212;2024-03-02T12:59:49;14.10;;;13.60;;
2486;SDS011;1254;49.144;8.212;2024-03-02T13:02:18;14.13;;;13.37;;
2486;SDS011;1254;49.144;8.212;2024-03-02T13:04:52;13.10;;;12.60;;
2486;SDS011;1254;49.144;8.212;2024-03-02T13:07:22;13.17;;;12.67;;
2486;SDS011;1254;49.144;8.212;2024-03-02T13:09:50;14.40;;;13.80;;
2486;SDS011;1254;49.144;8.212;2024-03-02T13:12:19;13.40;;;12.90;;
2486;SDS011;1254;49.144;8.212;2024-03-02T13:14:48;13.00;;;12.50;;
2486;SDS011;1254;49.144;8.212;2024-03-02T13:17:17;13.07;;;12.60;;
2486;SDS011;1254;49.144;8.212;2024-03-02T13:19:52;12.60;;;12.17;;
2486;SDS011;1254;49.144;8.212;2024-03-02T13:22:22;13.00;;;12.50;;
2486;SDS011;1254;49.144;8.212;2024-03-02T13:24:51;13.13;;;12.63;;
2486;SDS011;1254;49.144;8.212;2024-03-02T13:27:20;12.97;;;12.47;;
2486;SDS011;1254;49.144;8.212;2024-03-02T13:29:49;13.23;;;12.70;;
2486;SDS011;1254;49.144;8.212;2024-03-02T13:32:17;13.00;;;12.50;;
2486;SDS011;1254;49.144;8.212;2024-03-02T13:34:49;12.53;;;12.13;;
2486;SDS011;1254;49.144;8.212;2024-03-02T13:37:17;13.40;;;12.90;;
2486;SDS011;1254;49.144;8.212;2024-03-02T13:39:47;13.90;;;13.40;;
2486;SDS011;1254;49.144;8.212;2024-03-02T13:42:15;13.60;;;13.10;;
2486;SDS011;1254;49.144;8.212;2024-03-02T13:44:44;13.10;;;12.70;;
2486;SDS011;1254;49.144;8.212;2024-03-02T13:47:15;13.53;;;13.03;;
2486;SDS011;1254;49.144;8.212;2024-03-02T13:49:44;13.77;;;12.97;;
2486;SDS011;1254;49.144;8.212;2024-03-02T13:52:12;13.10;;;12.63;;
2486;SDS011;1254;49.144;8.212;2024-03-02T13:54:41;13.17;;;12.73;;
2486;SDS011;1254;49.144;8.212;2024-03-02T13:57:11;13.10;;;12.70;;
2486;SDS011;1254;49.144;8.212;2024-03-02T13:59:40;13.37;;;12.87;;
2486;SDS011;1254;49.144;8.212;2024-03-02T14:02:10;13.73;;;13.20;;
2486;SDS011;1254;49.144;8.212;2024-03-02T14:04:39;13.67;;;12.90;;
2486;SDS011;1254;49.144;8.212;2024-03-02T14:07:08;13.60;;;13.00;;
2486;SDS011;1254;49.144;8.212;2024-03-02T14:09:37;12.80;;;12.30;;
2486;SDS011;1254;49.144;8.212;2024-03-02T14:12:06;13.40;;;12.90;;
2486;SDS011;1254;49.144;8.212;2024-03-02T14:14:36;14.20;;;13.50;;
2486;SDS011;1254;49.144;8.212;2024-03-02T14:17:04;15.23;;;14.63;;
2486;SDS011;1254;49.144;8.212;2024-03-02T14:19:38;14.83;;;13.70;;
2486;SDS011;1254;49.144;8.212;2024-03-02T14:22:07;13.70;;;13.13;;
2486;SDS011;1254;49.144;8.212;2024-03-02T14:24:35;13.80;;;13.30;;
2486;SDS011;1254;49.144;8.212;2024-03-02T14:27:04;14.43;;;13.80;;
2486;SDS011;1254;49.144;8.212;2024-03-02T14:29:32;14.10;;;13.60;;
2486;SDS011;1254;49.144;8.212;2024-03-02T14:32:05;14.90;;;14.20;;
2486;SDS011;1254;49.144;8.212;2024-03-02T14:34:33;15.40;;;14.60;;
2486;SDS011;1254;49.144;8.212;2024-03-02T14:37:02;15.47;;;14.60;;
2486;SDS011;1254;49.144;8.212;2024-03-02T14:39:30;14.70;;;14.00;;
2486;SDS011;1254;49.144;8.212;2024-03-02T14:42:00;15.27;;;14.00;;
2486;SDS011;1254;49.144;8.212;2024-03-02T14:44:29;15.53;;;14.83;;
2486;SDS011;1254;49.144;8.212;2024-03-02T14:46:57;15.80;;;15.10;;
2486;SDS011;1254;49.144;8.212;2024-03-02T14:49:27;15.93;;;15.10;;
2486;SDS011;1254;49.144;8.212;2024-03-02T14:51:56;15.70;;;14.97;;
2486;SDS011;1254;49.144;8.212;2024-03-02T14:54:24;15.23;;;14.53;;
2486;SDS011;1254;49.144;8.212;2024-03-02T14:56:53;15.07;;;14.27;;
2486;SDS011;1254;49.144;8.212;2024-03-02T14:59:21;14.70;;;13.80;;
2486;SDS011;1254;49.144;8.212;2024-03-02T15:01:50;14.90;;;14.20;;
2486;SDS011;1254;49.144;8.212;2024-03-02T15:04:20;14.57;;;13.83;;
2486;SDS011;1254;49.144;8.212;2024-03-02T15:06:50;14.50;;;13.80;;
2486;SDS011;1254;49.144;8.212;2024-03-02T15:09:18;15.20;;;14.37;;
2486;SDS011;1254;49.144;8.212;2024-03-02T15:11:47;14.90;;;14.30;;
2486;SDS011;1254;49.144;8.212;2024-03-02T15:14:16;15.23;;;14.43;;
2486;SDS011;1254;49.144;8.212;2024-03-02T15:19:41;13.67;;;13.07;;